EDT,Max TemperatureF,Mean TemperatureF,Min TemperatureF,Max Dew PointF,MeanDew PointF,Min DewpointF,Max Humidity, Mean Humidity, Min Humidity, Max Sea Level PressureIn, Mean Sea Level PressureIn, Min Sea Level PressureIn, Max VisibilityMiles, Mean VisibilityMiles, Min VisibilityMiles, Max Wind SpeedMPH, Mean Wind SpeedMPH, Max Gust SpeedMPH,PrecipitationIn, CloudCover, Events, WindDirDegrees
2013-6-1,81,72,64,72,68,65,100,85,64,29.97,29.87,29.80,10,8,1,18,8,28,0.22,3,Rain,200
2013-6-2,80,72,66,66,61,58,94,75,52,29.94,29.88,29.84,10,10,10,13,8,,0.00,5,,260
2013-6-3,72,63,55,58,52,50,93,67,51,30.07,30.01,29.93,10,10,10,13,6,16,0.00,5,,8
2013-6-4,75,62,48,53,48,39,100,73,28,30.16,30.11,30.07,10,7,0,12,3,,0.00,0,Fog,51
2013-6-5,82,67,52,67,57,51,97,73,45,30.10,29.99,29.87,10,10,10,9,1,,0.00,2,,65
2013-6-6,75,68,62,68,64,61,100,90,65,29.87,29.82,29.78,10,6,0,10,3,,0.87,6,Fog-Rain,347
2013-6-7,77,68,60,61,58,55,94,76,53,29.90,29.84,29.80,10,8,5,12,6,20,0.00,5,,43
2013-6-8,78,68,57,65,59,55,94,76,56,30.03,29.97,29.91,10,7,2,6,2,,0.00,5,,63
2013-6-9,81,70,59,67,62,59,100,89,56,30.08,30.03,29.92,10,5,0,9,1,17,0.00,3,Fog-Rain,157
2013-6-10,78,71,64,66,65,62,100,86,60,29.90,29.85,29.79,10,8,2,14,7,22,0.44,6,Rain,208
2013-6-11,84,74,64,68,64,62,93,74,49,29.97,29.93,29.88,10,10,10,12,5,17,0.00,1,Rain,230
2013-6-12,90,78,66,75,71,66,97,77,59,29.93,29.86,29.74,10,10,7,12,3,17,0.00,0,,207
2013-6-13,82,74,66,72,64,53,100,74,43,29.93,29.76,29.62,10,9,2,17,12,32,0.66,5,Rain-Thunderstorm,313
2013-6-14,81,68,55,60,56,53,97,67,42,30.06,30.01,29.94,10,10,10,10,3,,0.00,1,,13
2013-6-15,82,68,55,66,60,55,100,83,50,30.13,30.07,29.97,10,7,0,9,1,17,0.00,2,Fog,188
2013-6-16,78,70,64,69,66,63,100,86,66,30.04,29.99,29.96,10,10,7,10,3,,0.01,3,Rain,222
2013-6-17,87,74,64,72,66,63,100,85,49,30.00,29.96,29.87,10,6,1,12,1,22,0.00,3,Rain-Thunderstorm,206
2013-6-18,84,73,64,70,66,63,100,83,54,29.99,29.91,29.86,10,9,4,10,4,,0.15,4,Rain-Thunderstorm,148
2013-6-19,81,69,57,61,57,53,97,69,38,30.13,30.07,30.00,10,10,9,9,3,,0.00,0,,47
2013-6-20,86,70,55,64,59,55,100,75,38,30.21,30.17,30.14,10,10,2,7,1,,0.00,0,,192
2013-6-21,86,72,59,71,64,58,100,75,47,30.22,30.18,30.12,10,9,7,9,2,,0.00,1,,172
2013-6-22,88,76,64,72,68,64,100,80,57,30.19,30.13,30.06,10,8,2,9,3,,0.00,1,,227
2013-6-23,88,76,64,70,66,64,100,82,49,30.16,30.10,30.06,10,7,2,13,2,29,0.00,0,,206
2013-6-24,86,73,62,71,67,63,100,88,60,30.15,30.10,30.04,10,5,0,12,2,,0.00,1,Fog,208
2013-6-25,90,78,66,74,70,66,100,78,55,30.08,30.00,29.89,10,9,5,13,6,18,0.00,1,,202
2013-6-26,86,76,68,74,69,64,100,89,64,29.97,29.88,29.80,10,8,2,21,8,30,0.97,4,Rain-Thunderstorm,198
2013-6-27,86,75,66,72,69,66,100,86,58,29.82,29.77,29.70,10,9,2,13,4,18,0.03,5,Rain-Thunderstorm,255
2013-6-28,86,74,63,70,64,58,100,71,41,29.71,29.65,29.59,10,10,4,20,8,30,0.08,3,Rain,260
2013-6-29,77,68,60,69,65,61,100,90,68,29.68,29.63,29.59,10,8,0,9,3,,0.10,4,Fog-Rain-Thunderstorm,214
2013-6-30,82,72,62,69,64,62,100,89,56,29.83,29.73,29.66,10,8,0,9,2,,0.03,5,Fog-Rain-Thunderstorm,25